Time;durP1;ratioP1;P1;durP2;ratioP2;P2;SDS_P1;SDS_P2;PMS_P1;PMS_P2;Temp;Humidity;BMP_temperature;BMP_pressure;BME280_temperature;BME280_humidity;BME280_pressure;Samples;Min_cycle;Max_cycle;Signal;HPM_P1;HPM_P2
2021/11/22 00:00:32;;;;;;;3.63;3.07;;;;;;;13.45;57.02;96123.03;5010208;28;20217;-84
2021/11/22 00:02:59;;;;;;;3.10;2.90;;;;;;;12.89;56.89;96003.97;5016327;28;20214;-84
2021/11/22 00:05:26;;;;;;;3.40;3.10;;;;;;;19.39;57.01;97115.28;5013186;28;20288;-84
2021/11/22 00:07:55;;;;;;;3.37;3.07;;;;;;;17.31;57.10;96770.84;5027524;28;20374;-84
2021/11/22 00:10:22;;;;;;;2.90;2.70;;;;;;;16.97;56.84;96697.78;5025453;28;21320;-84
2021/11/22 00:12:49;;;;;;;3.40;3.10;;;;;;;16.14;56.89;96564.66;5026383;28;20225;-85
2021/11/22 00:15:19;;;;;;;3.40;3.10;;;;;;;16.73;57.03;96663.09;5022748;28;20214;-84
2021/11/22 00:17:48;;;;;;;3.23;2.93;;;;;;;18.89;57.00;97022.81;5009919;28;20198;-85
2021/11/22 00:20:20;;;;;;;3.00;2.80;;;;;;;16.32;56.88;96583.88;5006553;28;20291;-84
2021/11/22 00:22:55;;;;;;;2.77;2.57;;;;;;;17.32;56.94;96757.38;5018611;28;20210;-85
2021/11/22 00:25:24;;;;;;;3.00;2.70;;;;;;;16.99;56.94;96702.91;4993513;28;20209;-84
2021/11/22 00:27:51;;;;;;;3.27;2.97;;;;;;;19.01;57.17;97054.59;5023304;28;20576;-85
2021/11/22 00:30:18;;;;;;;2.57;2.37;;;;;;;19.50;57.00;97141.13;5001541;28;20283;-84
2021/11/22 00:32:45;;;;;;;2.70;2.50;;;;;;;19.54;57.39;97171.00;5027424;28;20198;-84
2021/11/22 00:35:14;;;;;;;2.63;2.43;;;;;;;19.33;57.38;97144.84;5003640;28;20206;-84
2021/11/22 00:37:43;;;;;;;2.90;2.70;;;;;;;14.91;56.95;96355.06;5001806;28;20197;-84
2021/11/22 00:40:11;;;;;;;3.43;3.10;;;;;;;18.28;57.02;96974.13;5011840;28;20217;-84
2021/11/22 00:42:38;;;;;;;3.00;2.80;;;;;;;17.92;57.10;96894.09;5029009;28;20195;-85
2021/11/22 00:45:05;;;;;;;2.90;2.60;;;;;;;18.76;56.95;97043.59;5022000;28;20204;-84
2021/11/22 00:47:33;;;;;;;3.10;2.80;;;;;;;19.22;57.01;97120.66;5005322;28;20213;-84
2021/11/22 00:50:02;;;;;;;2.90;2.70;;;;;;;19.31;57.24;97142.25;5012857;28;20274;-84
2021/11/22 00:52:31;;;;;;;2.90;2.60;;;;;;;19.54;57.13;97186.28;5029580;28;20228;-84
2021/11/22 00:54:58;;;;;;;2.60;2.40;;;;;;;19.16;57.22;97123.00;5036211;28;20226;-84
2021/11/22 00:57:28;;;;;;;2.80;2.60;;;;;;;19.54;57.21;97188.84;5013046;28;20623;-84
2021/11/22 00:59:59;;;;;;;2.60;2.40;;;;;;;18.33;57.24;96975.16;5034987;28;20240;-84
2021/11/22 01:02:26;;;;;;;2.60;2.40;;;;;;;18.37;57.05;96989.72;5008193;28;20193;-84
2021/11/22 01:04:54;;;;;;;2.80;2.60;;;;;;;19.54;57.13;97192.22;5012402;28;20285;-84
2021/11/22 01:07:20;;;;;;;2.80;2.60;;;;;;;18.72;56.79;97054.50;5027884;28;20202;-84
2021/11/22 01:09:51;;;;;;;2.77;2.57;;;;;;;19.13;57.15;97125.47;5030470;28;20221;-84
2021/11/22 01:12:19;;;;;;;2.80;2.60;;;;;;;15.62;56.98;96528.13;5007825;28;20200;-85
2021/11/22 01:14:46;;;;;;;3.20;2.90;;;;;;;18.77;57.39;97061.47;5030153;28;20202;-84
2021/11/22 01:17:15;;;;;;;2.80;2.60;;;;;;;18.15;57.19;96962.69;5015211;28;20202;-84
2021/11/22 01:19:42;;;;;;;2.73;2.53;;;;;;;17.52;57.19;96848.69;5034320;28;20213;-84
2021/11/22 01:22:10;;;;;;;2.77;2.57;;;;;;;19.45;57.31;97186.00;5029890;28;20198;-84
2021/11/22 01:24:39;;;;;;;3.13;2.90;;;;;;;19.38;57.30;97190.03;5009751;28;20248;-85
2021/11/22 01:27:06;;;;;;;2.93;2.70;;;;;;;18.91;57.21;97093.34;4983418;28;20209;-84
2021/11/22 01:29:36;;;;;;;2.80;2.60;;;;;;;18.72;57.22;97055.38;5015918;28;20226;-84
2021/11/22 01:32:03;;;;;;;2.50;2.30;;;;;;;18.64;57.20;97045.72;5009196;28;20214;-85
2021/11/22 01:34:32;;;;;;;2.53;2.33;;;;;;;18.31;57.34;96994.56;4994162;28;20216;-84
2021/11/22 01:36:59;;;;;;;2.50;2.30;;;;;;;17.28;57.32;96829.16;5017485;28;20225;-84
2021/11/22 01:39:27;;;;;;;2.80;2.60;;;;;;;16.97;57.46;96776.47;5008804;28;20283;-84
2021/11/22 01:41:57;;;;;;;3.10;2.40;;;;;;;18.01;57.24;96945.25;5012795;28;20202;-84
2021/11/22 01:44:23;;;;;;;2.63;2.43;;;;;;;16.93;57.14;96774.63;5011298;28;20206;-84
2021/11/22 01:46:53;;;;;;;2.70;2.50;;;;;;;19.56;57.16;97211.00;5012614;28;20443;-84
2021/11/22 01:49:20;;;;;;;2.50;2.30;;;;;;;11.66;57.37;95863.03;5025506;23;20244;-89
2021/11/22 01:51:47;;;;;;;2.60;2.40;;;;;;;16.73;57.12;96750.22;5024887;28;20197;-88
2021/11/22 01:54:18;;;;;;;3.03;2.77;;;;;;;15.61;57.20;96592.25;5018013;28;20651;-88
2021/11/22 01:56:46;;;;;;;2.60;2.40;;;;;;;17.74;57.28;96890.94;4997606;28;20263;-89
2021/11/22 01:59:14;;;;;;;2.63;2.43;;;;;;;16.34;57.24;96644.78;5010915;28;20283;-89
2021/11/22 02:01:41;;;;;;;2.90;2.70;;;;;;;15.33;56.98;96470.47;4995121;28;20284;-89
2021/11/22 02:04:08;;;;;;;2.80;2.60;;;;;;;14.81;57.07;96413.72;5023969;28;20201;-90
2021/11/22 02:06:37;;;;;;;2.63;2.43;;;;;;;17.44;57.15;96898.34;4999157;28;20579;-89
2021/11/22 02:09:17;;;;;;;2.70;2.50;;;;;;;14.08;57.04;96250.81;4996361;28;20655;-89
2021/11/22 02:11:46;;;;;;;2.90;2.70;;;;;;;15.49;57.29;96523.44;4992668;28;20219;-90
2021/11/22 02:14:13;;;;;;;2.70;2.50;;;;;;;13.28;56.94;96141.69;4982975;28;20201;-89
2021/11/22 02:16:40;;;;;;;2.77;2.57;;;;;;;11.63;57.54;95858.72;4977706;28;20659;-88
2021/11/22 02:19:07;;;;;;;2.77;2.57;;;;;;;18.43;57.72;97040.81;5000202;28;20202;-88
2021/11/22 02:21:36;;;;;;;2.60;2.40;;;;;;;16.07;57.34;96629.47;5005161;28;20225;-89
2021/11/22 02:24:04;;;;;;;3.20;2.90;;;;;;;14.28;56.79;96305.53;4984414;28;20216;-89
2021/11/22 02:26:31;;;;;;;2.67;2.47;;;;;;;15.72;56.94;96583.41;4988133;28;20198;-90
2021/11/22 02:29:00;;;;;;;3.10;2.83;;;;;;;15.61;56.56;96551.75;5010937;28;20362;-88
2021/11/22 02:31:30;;;;;;;2.60;2.40;;;;;;;14.56;56.28;96367.28;4990778;28;20274;-89
2021/11/22 02:33:57;;;;;;;2.60;2.40;;;;;;;15.64;56.92;96600.84;4986552;28;20202;-89
2021/11/22 02:36:24;;;;;;;2.40;2.20;;;;;;;16.69;57.17;96760.22;4982195;28;20251;-88
2021/11/22 02:38:54;;;;;;;2.80;2.60;;;;;;;17.52;57.13;96860.50;4989281;28;20208;-89
2021/11/22 02:41:21;;;;;;;2.80;2.60;;;;;;;18.71;57.76;97070.59;5003575;28;20395;-88
2021/11/22 02:43:50;;;;;;;2.30;2.20;;;;;;;15.92;57.27;96676.16;4990704;28;20205;-90
2021/11/22 02:46:21;;;;;;;2.70;2.50;;;;;;;15.48;57.23;96575.72;4994344;28;20228;-89
2021/11/22 02:48:51;;;;;;;2.70;2.50;;;;;;;13.50;57.16;96194.69;4982282;28;20205;-89
2021/11/22 02:51:17;;;;;;;3.00;2.80;;;;;;;17.55;57.59;96914.84;5001861;28;20229;-88
2021/11/22 02:53:44;;;;;;;2.80;2.60;;;;;;;17.01;57.07;96805.34;4999898;28;20197;-90
2021/11/22 02:56:11;;;;;;;2.70;2.50;;;;;;;15.92;57.04;96602.69;4979604;28;20276;-89
2021/11/22 02:58:39;;;;;;;3.07;2.87;;;;;;;13.94;57.66;96288.19;4981182;28;20670;-89
2021/11/22 03:01:07;;;;;;;2.57;2.37;;;;;;;15.33;56.83;96528.69;4987728;28;20626;-90
2021/11/22 03:03:48;;;;;;;2.80;2.60;;;;;;;15.14;57.21;96547.41;4986259;28;20294;-89
2021/11/22 03:06:19;;;;;;;2.70;2.50;;;;;;;16.56;57.17;96723.41;4983498;28;20510;-89
2021/11/22 03:08:46;;;;;;;2.80;2.57;;;;;;;17.88;57.06;96943.94;5019946;28;20227;-90
2021/11/22 03:11:13;;;;;;;3.30;3.00;;;;;;;17.15;57.30;96832.97;4984104;28;20237;-90
2021/11/22 03:13:41;;;;;;;2.90;2.70;;;;;;;14.82;56.95;96453.34;5012760;28;20201;-90
2021/11/22 03:16:11;;;;;;;3.10;2.90;;;;;;;14.44;57.39;96426.59;5008312;28;20209;-90
2021/11/22 03:18:40;;;;;;;2.97;2.70;;;;;;;15.74;57.16;96650.16;5016002;28;20202;-89
2021/11/22 03:21:06;;;;;;;2.80;2.60;;;;;;;17.90;57.40;96980.47;4985159;28;20610;-89
2021/11/22 03:23:34;;;;;;;3.40;3.10;;;;;;;12.71;57.29;96072.13;4981417;28;20227;-89
2021/11/22 03:26:01;;;;;;;2.80;2.60;;;;;;;15.43;57.13;96529.16;4982239;28;20208;-89
2021/11/22 03:28:31;;;;;;;2.90;2.70;;;;;;;14.39;57.03;96401.16;4996628;28;20262;-89
2021/11/22 03:31:01;;;;;;;3.17;2.90;;;;;;;15.71;57.29;96586.72;4986575;28;20229;-89
2021/11/22 03:33:28;;;;;;;2.70;2.50;;;;;;;15.12;57.19;96541.41;5007724;28;20205;-87
2021/11/22 03:35:55;;;;;;;2.93;2.73;;;;;;;17.15;57.64;96850.72;4994398;28;20247;-90
2021/11/22 03:38:23;;;;;;;2.73;2.53;;;;;;;17.53;57.42;96892.75;4995286;28;20256;-89
2021/11/22 03:40:52;;;;;;;2.57;2.37;;;;;;;16.84;57.25;96806.44;5000105;28;20245;-90
2021/11/22 03:43:44;;;;;;;3.00;2.80;;;;;;;14.43;57.05;96357.53;4979555;28;20268;-89
2021/11/22 03:46:11;;;;;;;3.07;2.80;;;;;;;14.39;57.02;96373.34;4998826;28;20189;-90
2021/11/22 03:48:39;;;;;;;3.00;2.80;;;;;;;13.65;57.03;96303.81;4973967;28;20233;-89
2021/11/22 03:51:05;;;;;;;3.27;2.97;;;;;;;14.53;57.23;96391.56;4994066;28;20676;-89
2021/11/22 03:53:32;;;;;;;2.93;2.63;;;;;;;17.64;57.23;96957.47;4998031;28;20197;-89
2021/11/22 03:55:59;;;;;;;2.60;2.40;;;;;;;19.40;57.13;97218.97;5014399;28;20304;-89
2021/11/22 03:58:26;;;;;;;3.00;2.80;;;;;;;17.29;57.13;96867.28;4988519;28;20667;-89
2021/11/22 04:00:52;;;;;;;2.90;2.70;;;;;;;18.57;57.03;97121.03;4996185;28;20220;-89
2021/11/22 04:03:19;;;;;;;2.90;2.70;;;;;;;14.47;57.16;96452.88;5001464;28;20550;-89
2021/11/22 04:05:46;;;;;;;2.70;2.50;;;;;;;17.60;57.12;96983.59;4984202;28;20240;-90
2021/11/22 04:08:13;;;;;;;3.00;2.70;;;;;;;18.25;57.38;97037.59;4999118;28;20268;-89
2021/11/22 04:10:40;;;;;;;2.60;2.40;;;;;;;18.24;57.27;97057.09;4979519;28;20304;-90
2021/11/22 04:13:06;;;;;;;2.90;2.70;;;;;;;17.68;57.47;96951.72;4984180;28;20224;-89
2021/11/22 04:15:34;;;;;;;3.17;2.93;;;;;;;17.66;57.18;96940.63;5000916;28;20644;-90
2021/11/22 04:18:00;;;;;;;2.87;2.67;;;;;;;18.90;57.47;97169.66;4983807;28;20232;-90
2021/11/22 04:20:27;;;;;;;2.90;2.70;;;;;;;18.20;57.37;97055.25;5010471;28;20221;-90
2021/11/22 04:22:54;;;;;;;2.83;2.63;;;;;;;18.61;57.48;97124.53;5001823;28;20193;-90
2021/11/22 04:25:20;;;;;;;3.10;2.80;;;;;;;18.04;57.41;97045.38;4997861;28;20206;-89
2021/11/22 04:27:47;;;;;;;2.47;2.27;;;;;;;18.96;57.38;97187.69;5000448;28;20281;-89
2021/11/22 04:30:14;;;;;;;2.93;2.73;;;;;;;18.13;57.35;97068.59;4985302;28;20309;-89
2021/11/22 04:32:41;;;;;;;3.13;2.83;;;;;;;17.99;57.22;97029.09;4990009;28;20209;-90
2021/11/22 04:35:09;;;;;;;3.10;2.80;;;;;;;19.02;57.40;97209.16;4996268;28;20194;-89
2021/11/22 04:37:35;;;;;;;2.90;2.70;;;;;;;17.47;57.35;96941.63;4991235;28;20310;-90
2021/11/22 04:40:03;;;;;;;2.93;2.73;;;;;;;18.57;57.62;97131.22;4998779;28;20244;-90
2021/11/22 04:42:30;;;;;;;2.90;2.70;;;;;;;18.26;57.34;97107.16;5016616;28;20202;-89
2021/11/22 04:44:56;;;;;;;2.70;2.50;;;;;;;19.12;57.42;97243.41;4984997;28;20255;-89
2021/11/22 04:47:26;;;;;;;2.60;2.40;;;;;;;18.80;57.27;97178.66;4987603;28;20276;-89
2021/11/22 04:49:53;;;;;;;2.83;2.63;;;;;;;18.85;57.36;97205.16;4986835;28;20224;-89
2021/11/22 04:52:20;;;;;;;2.70;2.50;;;;;;;16.61;57.27;96809.78;4987074;28;20272;-89
2021/11/22 04:54:47;;;;;;;2.90;2.70;;;;;;;19.21;57.55;97299.78;4982982;28;20259;-90
2021/11/22 04:57:14;;;;;;;2.90;2.70;;;;;;;18.49;57.58;97152.09;4986984;28;20629;-88
2021/11/22 04:59:41;;;;;;;2.83;2.63;;;;;;;19.24;57.34;97282.91;4998402;28;20245;-89
2021/11/22 05:02:09;;;;;;;2.93;2.73;;;;;;;18.17;57.42;97084.78;4994816;28;20277;-89
2021/11/22 05:04:36;;;;;;;2.80;2.60;;;;;;;18.07;57.34;97075.13;5008245;28;20198;-89
2021/11/22 05:07:03;;;;;;;3.17;2.90;;;;;;;18.51;57.25;97169.16;4994484;28;20650;-89
2021/11/22 05:09:30;;;;;;;3.10;2.80;;;;;;;18.97;57.47;97271.78;4990424;28;20317;-90
2021/11/22 05:11:57;;;;;;;2.77;2.57;;;;;;;18.83;57.29;97209.31;4982796;28;20252;-89
2021/11/22 05:14:24;;;;;;;2.80;2.60;;;;;;;17.81;57.13;97038.59;4997730;28;20201;-89
2021/11/22 05:16:51;;;;;;;2.87;2.60;;;;;;;18.26;57.16;97109.69;4988849;28;20255;-89
2021/11/22 05:19:18;;;;;;;3.00;2.80;;;;;;;18.52;57.23;97157.28;4984134;28;20291;-89
2021/11/22 05:21:44;;;;;;;2.93;2.73;;;;;;;17.47;57.19;96981.44;4999852;28;20205;-90
2021/11/22 05:24:11;;;;;;;2.80;2.60;;;;;;;18.42;57.16;97151.03;4985830;28;20682;-89
2021/11/22 05:26:38;;;;;;;3.20;2.90;;;;;;;18.96;57.19;97261.53;5000495;28;20248;-89
2021/11/22 05:29:06;;;;;;;2.97;2.77;;;;;;;17.80;57.16;97041.94;5012175;28;20241;-89
2021/11/22 05:31:33;;;;;;;2.90;2.60;;;;;;;19.15;57.36;97279.19;4986658;28;20276;-90
2021/11/22 05:34:00;;;;;;;3.07;2.87;;;;;;;18.41;57.33;97156.06;4979509;28;20664;-88
2021/11/22 05:36:26;;;;;;;3.03;2.83;;;;;;;18.85;57.23;97235.69;4990925;28;20202;-90
2021/11/22 05:38:53;;;;;;;2.90;2.70;;;;;;;19.28;57.52;97324.69;5009440;28;20214;-90
2021/11/22 05:41:20;;;;;;;3.03;2.83;;;;;;;17.86;57.25;97065.03;4991858;28;20194;-90
2021/11/22 05:43:46;;;;;;;2.90;2.70;;;;;;;19.05;57.28;97283.13;4980847;28;20197;-89
2021/11/22 05:46:13;;;;;;;2.40;2.23;;;;;;;18.92;57.37;97247.81;5006380;28;20233;-89
2021/11/22 05:48:39;;;;;;;3.10;2.80;;;;;;;19.31;57.28;97322.25;4996291;28;20198;-89
2021/11/22 05:51:08;;;;;;;2.70;2.50;;;;;;;18.77;57.18;97232.00;5000992;28;20304;-90
2021/11/22 05:53:36;;;;;;;3.10;2.90;;;;;;;18.66;57.08;97209.53;5009741;28;20268;-90
2021/11/22 05:56:04;;;;;;;2.80;2.50;;;;;;;19.08;57.25;97279.78;4981975;28;20232;-90
2021/11/22 05:58:31;;;;;;;3.07;2.87;;;;;;;19.09;57.39;97295.13;4986063;28;20549;-90
2021/11/22 06:00:58;;;;;;;2.83;2.63;;;;;;;18.95;56.81;97270.00;4986988;28;20633;-89
2021/11/22 06:03:27;;;;;;;2.60;2.40;;;;;;;19.30;57.33;97354.50;5020329;28;20206;-89
2021/11/22 06:05:53;;;;;;;2.77;2.57;;;;;;;18.09;57.11;97134.53;4986265;28;20256;-89
2021/11/22 06:08:20;;;;;;;3.67;3.17;;;;;;;18.64;57.22;97222.22;5004792;28;20260;-89
2021/11/22 06:10:49;;;;;;;2.83;2.63;;;;;;;19.17;57.09;97314.09;4991775;28;20254;-90
2021/11/22 06:13:19;;;;;;;2.70;2.50;;;;;;;18.97;57.10;97297.25;5003170;28;20207;-89
2021/11/22 06:15:49;;;;;;;2.53;2.33;;;;;;;19.03;57.16;97309.31;4989297;28;20205;-89
2021/11/22 06:18:16;;;;;;;3.23;2.93;;;;;;;19.17;57.03;97324.28;4999669;28;20208;-89
2021/11/22 06:20:42;;;;;;;2.80;2.60;;;;;;;18.08;57.06;97136.19;4975252;28;20755;-90
2021/11/22 06:23:11;;;;;;;2.80;2.60;;;;;;;18.44;56.98;97196.88;4987009;28;20273;-89
2021/11/22 06:25:38;;;;;;;3.00;2.63;;;;;;;19.19;57.17;97342.19;4985987;28;20202;-89
2021/11/22 06:28:05;;;;;;;3.00;2.80;;;;;;;18.09;56.94;97153.19;4984059;28;20198;-87
2021/11/22 06:30:32;;;;;;;2.90;2.70;;;;;;;19.11;57.10;97318.09;4978350;28;20637;-88
2021/11/22 06:32:58;;;;;;;2.97;2.77;;;;;;;18.82;56.92;97268.69;5012069;28;20273;-88
2021/11/22 06:35:25;;;;;;;2.80;2.60;;;;;;;17.78;57.11;97090.97;5006035;28;20205;-89
2021/11/22 06:37:55;;;;;;;3.13;2.93;;;;;;;18.18;57.00;97181.47;4982905;28;20296;-89
2021/11/22 06:40:21;;;;;;;3.17;2.93;;;;;;;13.86;56.99;96450.28;4984413;28;20653;-89
2021/11/22 06:42:48;;;;;;;2.80;2.60;;;;;;;15.50;57.01;96779.22;4975775;28;20251;-88
2021/11/22 06:45:15;;;;;;;2.60;2.40;;;;;;;15.64;56.80;96821.16;4995323;28;20256;-89
2021/11/22 06:47:42;;;;;;;2.70;2.50;;;;;;;18.43;56.99;97286.72;4981576;28;20259;-88
2021/11/22 06:50:08;;;;;;;2.87;2.67;;;;;;;15.04;56.98;96665.88;5004945;28;20226;-90
2021/11/22 06:52:35;;;;;;;2.80;2.60;;;;;;;14.29;56.92;96602.88;4999468;28;20247;-88
2021/11/22 06:55:02;;;;;;;2.80;2.60;;;;;;;16.77;57.03;96966.84;4998666;28;20228;-88
2021/11/22 06:57:29;;;;;;;2.70;2.50;;;;;;;14.15;57.19;96566.03;5021841;28;20193;-89
2021/11/22 06:59:55;;;;;;;2.60;2.40;;;;;;;18.72;56.95;97298.84;5016602;28;20245;-87
2021/11/22 07:02:24;;;;;;;2.70;2.50;;;;;;;15.60;57.00;96833.63;5005565;28;20606;-89
2021/11/22 07:04:51;;;;;;;3.63;2.43;;;;;;;13.07;56.93;96397.19;4993690;28;20205;-89
2021/11/22 07:07:18;;;;;;;2.37;2.17;;;;;;;14.45;57.03;96583.34;4993198;28;20201;-90
2021/11/22 07:09:45;;;;;;;2.47;2.27;;;;;;;17.65;57.03;97140.47;4998986;28;20256;-89
2021/11/22 07:12:14;;;;;;;2.33;2.23;;;;;;;18.93;57.09;97368.38;4999375;28;20698;-90
2021/11/22 07:14:42;;;;;;;2.80;2.60;;;;;;;17.32;57.09;97090.88;5014383;28;20200;-90
2021/11/22 07:17:10;;;;;;;2.37;2.17;;;;;;;17.39;57.29;97103.03;4985875;28;20597;-90
2021/11/22 07:19:37;;;;;;;2.50;2.30;;;;;;;17.88;57.29;97189.63;4981773;28;20233;-90
2021/11/22 07:22:07;;;;;;;2.40;2.20;;;;;;;18.66;57.45;97352.97;5000587;28;20201;-89
2021/11/22 07:24:34;;;;;;;2.60;2.40;;;;;;;18.40;57.10;97301.88;4986812;28;20205;-88
2021/11/22 07:27:00;;;;;;;2.13;2.00;;;;;;;18.84;57.27;97381.66;4999909;28;20249;-90
2021/11/22 07:29:28;;;;;;;2.70;2.50;;;;;;;19.27;57.18;97443.56;4987853;28;20229;-90
2021/11/22 07:31:54;;;;;;;2.13;2.03;;;;;;;18.49;57.23;97310.72;4999818;28;20290;-88
2021/11/22 07:34:21;;;;;;;2.50;2.30;;;;;;;19.10;57.33;97415.72;4995544;28;20209;-89
2021/11/22 07:36:48;;;;;;;2.63;2.43;;;;;;;18.43;57.18;97302.88;4991970;28;20193;-89
2021/11/22 07:39:15;;;;;;;2.50;2.30;;;;;;;19.26;57.23;97457.09;4988323;28;20309;-89
2021/11/22 07:41:41;;;;;;;2.60;2.40;;;;;;;17.86;57.10;97206.53;4993367;28;20205;-90
2021/11/22 07:44:08;;;;;;;2.57;2.37;;;;;;;19.40;57.34;97483.13;4989840;28;20229;-89
2021/11/22 07:46:35;;;;;;;2.50;2.30;;;;;;;17.76;57.03;97190.03;4990463;28;20618;-88
2021/11/22 07:49:02;;;;;;;2.80;2.60;;;;;;;18.80;57.15;97384.03;5017721;28;20603;-89
2021/11/22 07:51:28;;;;;;;2.87;2.67;;;;;;;19.23;57.25;97458.66;5044553;23;20252;-85
2021/11/22 07:53:55;;;;;;;2.80;2.60;;;;;;;19.13;56.98;97447.25;5008789;28;20474;-84
2021/11/22 07:56:21;;;;;;;2.60;2.40;;;;;;;18.67;57.36;97374.16;5049900;28;20672;-85
2021/11/22 07:58:48;;;;;;;2.53;2.33;;;;;;;19.30;57.40;97481.91;5011736;28;20738;-85
2021/11/22 08:01:15;;;;;;;2.23;2.13;;;;;;;19.23;57.36;97471.41;5007466;28;20213;-84
2021/11/22 08:03:41;;;;;;;2.40;2.20;;;;;;;19.26;57.38;97485.13;5044492;28;20484;-86
2021/11/22 08:06:08;;;;;;;2.40;2.20;;;;;;;19.17;57.36;97460.97;5008940;28;20225;-85
2021/11/22 08:08:37;;;;;;;2.33;2.17;;;;;;;19.10;58.04;97462.41;5037737;28;20240;-85
2021/11/22 08:11:07;;;;;;;2.40;2.20;;;;;;;19.46;57.33;97527.56;5008039;28;20351;-84
2021/11/22 08:13:34;;;;;;;2.90;2.70;;;;;;;19.22;57.48;97496.00;5026627;28;20224;-84
2021/11/22 08:16:02;;;;;;;2.20;2.10;;;;;;;19.20;57.41;97489.13;5035273;28;20229;-85
2021/11/22 08:18:29;;;;;;;2.67;2.47;;;;;;;19.24;57.55;97496.94;5037072;28;20201;-84
2021/11/22 08:20:55;;;;;;;2.40;2.20;;;;;;;19.31;57.41;97518.47;5042283;28;20244;-84
2021/11/22 08:23:22;;;;;;;2.67;2.47;;;;;;;19.28;57.40;97514.13;5027611;28;20196;-84
2021/11/22 08:25:50;;;;;;;4.80;4.40;;;;;;;19.27;56.47;97519.16;5037027;28;20210;-85
2021/11/22 08:28:17;;;;;;;7.23;6.53;;;;;;;19.15;54.96;97503.34;5009210;28;20209;-84
2021/11/22 08:30:44;;;;;;;9.37;7.33;;;;;;;19.20;53.92;97512.03;5019815;28;20221;-84
2021/11/22 08:33:13;;;;;;;10.73;8.40;;;;;;;19.16;52.64;97510.19;5041680;28;20291;-84
2021/11/22 08:35:40;;;;;;;9.67;8.57;;;;;;;19.13;52.65;97521.13;5060917;28;20283;-84
2021/11/22 08:38:06;;;;;;;14.37;9.40;;;;;;;19.18;52.41;97540.00;5028025;28;20225;-84
2021/11/22 08:40:33;;;;;;;10.40;9.30;;;;;;;19.19;52.19;97541.72;5019332;28;20654;-84
2021/11/22 08:43:02;;;;;;;10.80;9.70;;;;;;;18.96;51.55;97498.38;5036632;28;20196;-84
2021/11/22 08:45:29;;;;;;;10.47;8.73;;;;;;;18.67;51.52;97465.78;5022074;28;20658;-84
2021/11/22 08:47:55;;;;;;;10.23;9.20;;;;;;;19.27;51.48;97562.47;5028651;28;20657;-84
2021/11/22 08:50:22;;;;;;;12.37;9.67;;;;;;;19.11;51.58;97537.16;5009135;28;20679;-85
2021/11/22 08:52:49;;;;;;;10.73;9.33;;;;;;;19.07;52.16;97533.63;5011580;28;20244;-83
2021/11/22 08:55:17;;;;;;;10.30;8.40;;;;;;;19.27;52.47;97567.56;5036943;28;20291;-83
2021/11/22 08:57:44;;;;;;;9.30;8.00;;;;;;;19.09;52.76;97546.41;5011115;28;20568;-85
2021/11/22 09:00:12;;;;;;;9.87;7.30;;;;;;;19.14;53.36;97552.56;5017456;28;20256;-87
2021/11/22 09:02:39;;;;;;;8.50;7.10;;;;;;;19.19;53.72;97558.72;5029986;28;20225;-84
2021/11/22 09:05:06;;;;;;;8.77;7.47;;;;;;;19.07;54.17;97546.34;5002983;28;20200;-85
2021/11/22 09:07:33;;;;;;;8.07;6.77;;;;;;;19.10;54.18;97554.13;5039083;28;20621;-83
2021/11/22 09:09:59;;;;;;;7.30;6.60;;;;;;;19.01;54.63;97535.94;5032048;28;20705;-83
2021/11/22 09:12:26;;;;;;;7.73;6.93;;;;;;;19.19;54.50;97569.75;5005497;28;20300;-84
2021/11/22 09:14:54;;;;;;;7.23;6.60;;;;;;;19.04;54.90;97543.69;5006002;28;20870;-83
2021/11/22 09:17:21;;;;;;;7.63;6.43;;;;;;;19.22;54.76;97582.63;5009504;28;20220;-83
2021/11/22 09:19:47;;;;;;;6.93;6.23;;;;;;;19.09;54.89;97561.69;5010541;28;20200;-84
2021/11/22 09:22:14;;;;;;;6.70;6.10;;;;;;;19.24;55.17;97590.31;5027580;28;20272;-82
2021/11/22 09:24:41;;;;;;;6.37;5.77;;;;;;;19.27;55.05;97593.06;5034293;28;20313;-83
2021/11/22 09:27:07;;;;;;;6.93;6.17;;;;;;;19.02;55.37;97549.53;5016502;28;20674;-83
2021/11/22 09:29:34;;;;;;;6.33;5.73;;;;;;;19.02;55.25;97554.63;5018312;28;20247;-86
2021/11/22 09:32:01;;;;;;;7.43;6.30;;;;;;;19.22;55.27;97591.97;5026822;28;20304;-85
2021/11/22 09:34:28;;;;;;;6.27;5.63;;;;;;;19.21;55.29;97588.53;5022300;28;20299;-82
2021/11/22 09:36:55;;;;;;;5.90;5.40;;;;;;;19.30;55.28;97605.91;5032726;28;20188;-83
2021/11/22 09:39:22;;;;;;;6.43;5.83;;;;;;;19.13;55.49;97577.16;5022624;28;20295;-83
2021/11/22 09:41:49;;;;;;;5.87;5.20;;;;;;;19.27;55.56;97590.50;5024096;28;20225;-83
2021/11/22 09:44:17;;;;;;;6.30;5.50;;;;;;;19.13;55.51;97572.06;5006034;28;20228;-83
2021/11/22 09:46:44;;;;;;;5.50;5.00;;;;;;;19.23;55.42;97604.75;5034406;28;20201;-84
2021/11/22 09:49:10;;;;;;;5.80;5.17;;;;;;;18.96;55.67;97554.38;5011567;28;20201;-83
2021/11/22 09:51:37;;;;;;;5.33;4.83;;;;;;;19.32;55.65;97617.00;5010492;28;20259;-84
2021/11/22 09:54:08;;;;;;;5.53;4.97;;;;;;;18.89;55.71;97543.09;5005891;28;20209;-82
2021/11/22 09:56:34;;;;;;;13.00;4.47;;;;;;;19.36;55.87;97627.38;5014021;28;20648;-82
2021/11/22 09:59:01;;;;;;;6.10;4.57;;;;;;;19.30;55.65;97611.00;5015733;28;20314;-82
2021/11/22 10:01:31;;;;;;;5.10;4.60;;;;;;;19.08;55.87;97575.25;5045742;28;20248;-83
2021/11/22 10:04:00;;;;;;;5.03;4.57;;;;;;;19.43;55.92;97641.25;5030525;28;20594;-83
2021/11/22 10:06:27;;;;;;;5.57;4.90;;;;;;;19.08;55.97;97577.78;5044115;28;20247;-83
2021/11/22 10:08:54;;;;;;;5.17;4.67;;;;;;;19.26;55.74;97606.53;5003114;28;20276;-83
2021/11/22 10:11:21;;;;;;;4.70;4.20;;;;;;;19.15;55.92;97593.38;5025600;28;20244;-83
2021/11/22 10:13:48;;;;;;;4.77;4.37;;;;;;;19.31;55.87;97625.47;5022578;28;20671;-83
2021/11/22 10:16:22;;;;;;;4.90;4.40;;;;;;;19.26;56.02;97622.72;5014714;28;20198;-83
2021/11/22 10:18:52;;;;;;;5.13;4.63;;;;;;;19.43;56.05;97646.34;5009333;28;20279;-83
2021/11/22 10:21:21;;;;;;;5.20;4.13;;;;;;;19.19;56.15;97609.66;5048972;28;20228;-83
2021/11/22 10:23:50;;;;;;;5.17;4.63;;;;;;;19.31;56.15;97626.34;4998693;28;20201;-83
2021/11/22 10:26:17;;;;;;;4.37;3.83;;;;;;;19.24;55.96;97613.25;5021678;28;20266;-83
2021/11/22 10:28:49;;;;;;;4.20;3.80;;;;;;;19.17;56.17;97604.50;5036128;28;20204;-83
2021/11/22 10:31:18;;;;;;;4.90;4.23;;;;;;;19.24;55.99;97628.53;5041057;28;20334;-83
2021/11/22 10:33:46;;;;;;;4.60;4.20;;;;;;;19.22;56.24;97618.28;5030596;28;20221;-82
2021/11/22 10:36:22;;;;;;;4.30;3.90;;;;;;;19.29;56.12;97627.09;5042720;28;20239;-84
2021/11/22 10:38:51;;;;;;;4.13;3.80;;;;;;;19.14;56.31;97609.50;5014327;28;20187;-83
2021/11/22 10:41:23;;;;;;;4.47;3.80;;;;;;;19.29;56.19;97637.28;4996999;28;20263;-84
2021/11/22 10:43:59;;;;;;;4.03;3.63;;;;;;;19.32;56.35;97642.50;5042212;28;20196;-83
2021/11/22 10:46:44;;;;;;;4.33;3.93;;;;;;;19.35;56.31;97650.25;5013373;28;20289;-83
2021/11/22 10:49:16;;;;;;;4.17;3.77;;;;;;;19.41;56.37;97656.47;5002258;28;20197;-83
2021/11/22 10:51:46;;;;;;;4.00;3.60;;;;;;;19.12;56.38;97611.09;5034166;28;20285;-81
2021/11/22 10:54:15;;;;;;;4.63;4.03;;;;;;;19.13;56.07;97609.44;5019917;28;20288;-82
2021/11/22 10:56:49;;;;;;;4.20;3.80;;;;;;;19.14;56.04;97611.16;5024981;28;20284;-83
2021/11/22 10:59:22;;;;;;;4.53;4.07;;;;;;;19.26;55.91;97624.38;5043107;28;20204;-82
2021/11/22 11:01:52;;;;;;;3.77;3.47;;;;;;;19.45;55.74;97654.94;4996784;28;20252;-83
2021/11/22 11:04:22;;;;;;;4.47;3.73;;;;;;;19.18;56.00;97608.78;5040939;28;20561;-83
2021/11/22 11:06:52;;;;;;;3.90;3.50;;;;;;;19.45;55.96;97662.56;5025574;28;20193;-84
2021/11/22 11:09:23;;;;;;;3.50;3.20;;;;;;;19.45;56.02;97665.13;5052039;28;20255;-84
2021/11/22 11:12:17;;;;;;;3.53;3.23;;;;;;;19.44;55.98;97665.91;5029548;28;20779;-84
2021/11/22 11:14:45;;;;;;;3.83;3.43;;;;;;;19.23;56.29;97629.34;5039544;28;20806;-84
2021/11/22 11:17:21;;;;;;;3.43;3.17;;;;;;;19.16;56.36;97630.78;5046195;28;20209;-83
2021/11/22 11:19:50;;;;;;;3.27;2.97;;;;;;;19.12;56.44;97628.94;5016106;28;20224;-83
2021/11/22 11:22:17;;;;;;;3.37;3.07;;;;;;;19.19;56.24;97642.78;5042747;28;20280;-84
2021/11/22 11:24:44;;;;;;;3.73;3.33;;;;;;;19.08;56.59;97624.53;5001379;28;20255;-83
2021/11/22 11:27:27;;;;;;;4.03;3.40;;;;;;;19.04;56.36;97630.28;5043707;28;20292;-84
2021/11/22 11:29:54;;;;;;;3.97;3.23;;;;;;;19.19;56.69;97655.53;5005291;28;20374;-84
2021/11/22 11:32:20;;;;;;;3.00;2.70;;;;;;;19.32;57.22;97675.63;5036097;28;20274;-83
2021/11/22 11:34:51;;;;;;;3.20;2.90;;;;;;;19.29;56.68;97666.19;4997912;28;20280;-83
2021/11/22 11:37:55;;;;;;;3.60;3.30;;;;;;;19.39;56.59;97681.03;5005180;28;20209;-83